Time;durP1;ratioP1;P1;durP2;ratioP2;P2;SDS_P1;SDS_P2;PMS_P1;PMS_P2;Temp;Humidity;BMP_temperature;BMP_pressure;BME280_temperature;BME280_humidity;BME280_pressure;Samples;Min_cycle;Max_cycle;Signal;HPM_P1;HPM_P2
2023/10/10 00:01:04;;;;;;;8.40;3.67;;;16.50;99.90;;;;;;5025644;28;20189;-66
2023/10/10 00:03:34;;;;;;;6.30;3.45;;;16.50;99.90;;;;;;5016735;28;20199;-64
2023/10/10 00:06:00;;;;;;;7.70;3.53;;;16.40;99.90;;;;;;5016633;28;20217;-66
2023/10/10 00:08:34;;;;;;;5.35;3.35;;;16.40;99.90;;;;;;5016676;28;20228;-65
2023/10/10 00:11:00;;;;;;;5.55;3.63;;;16.40;99.90;;;;;;5032763;28;20198;-66
2023/10/10 00:13:26;;;;;;;4.32;3.20;;;16.30;99.90;;;;;;5016234;28;20182;-64
2023/10/10 00:15:55;;;;;;;4.68;3.30;;;16.30;99.90;;;;;;5013236;28;20186;-65
2023/10/10 00:18:22;;;;;;;5.78;3.58;;;16.30;99.90;;;;;;4999009;28;20207;-65
2023/10/10 00:21:17;;;;;;;4.72;3.25;;;16.20;99.90;;;;;;5006057;28;20237;-66
2023/10/10 00:23:43;;;;;;;4.65;3.40;;;16.20;99.90;;;;;;5013427;28;20206;-66
2023/10/10 00:26:14;;;;;;;5.40;3.50;;;16.20;99.90;;;;;;5007174;28;20163;-66
2023/10/10 00:28:45;;;;;;;5.80;3.78;;;16.20;99.90;;;;;;5016352;28;20159;-67
2023/10/10 00:31:22;;;;;;;4.93;3.30;;;16.20;99.90;;;;;;5016743;28;20199;-66
2023/10/10 00:33:51;;;;;;;5.07;3.25;;;16.10;99.90;;;;;;5006406;28;20182;-66
2023/10/10 00:36:31;;;;;;;5.50;3.17;;;16.10;99.90;;;;;;5010996;28;20241;-65
2023/10/10 00:39:39;;;;;;;4.88;3.38;;;16.10;99.90;;;;;;5011216;28;20293;-66
2023/10/10 00:41:53;;;;;;;4.68;3.33;;;16.10;99.90;;;;;;5002368;28;20183;-66
2023/10/10 00:44:19;;;;;;;6.18;3.88;;;16.00;99.90;;;;;;5002308;28;20273;-66
2023/10/10 00:46:54;;;;;;;5.80;3.38;;;16.10;99.90;;;;;;5015718;28;20174;-66
2023/10/10 00:49:23;;;;;;;5.03;3.25;;;16.00;99.90;;;;;;4995847;28;20218;-66
2023/10/10 00:51:54;;;;;;;5.20;3.50;;;16.00;99.90;;;;;;5007636;28;20183;-66
2023/10/10 00:56:55;;;;;;;5.55;3.50;;;15.90;99.90;;;;;;4999076;28;20199;-66
2023/10/10 00:59:32;;;;;;;5.20;3.20;;;15.90;99.90;;;;;;5008254;28;20190;-66
2023/10/10 01:01:58;;;;;;;5.40;3.22;;;15.90;99.90;;;;;;5015119;28;20214;-65
2023/10/10 01:04:55;;;;;;;6.53;3.50;;;15.90;99.90;;;;;;5012207;28;20303;-66
2023/10/10 01:07:10;;;;;;;5.30;3.40;;;15.80;99.90;;;;;;5003427;28;20187;-65
2023/10/10 01:09:56;;;;;;;5.15;3.30;;;15.80;99.90;;;;;;4996233;28;20203;-65
2023/10/10 01:12:28;;;;;;;6.03;3.17;;;15.80;99.90;;;;;;5012194;28;20224;-65
2023/10/10 01:14:57;;;;;;;5.95;3.17;;;15.80;99.90;;;;;;5015274;28;20171;-65
2023/10/10 01:17:33;;;;;;;5.22;3.13;;;15.80;99.90;;;;;;5015432;28;20182;-65
2023/10/10 01:20:09;;;;;;;4.35;3.22;;;15.70;99.90;;;;;;5012800;28;20182;-66
2023/10/10 01:22:46;;;;;;;4.53;3.22;;;15.80;99.90;;;;;;5010153;28;20199;-66
2023/10/10 01:25:42;;;;;;;4.32;3.00;;;15.70;99.90;;;;;;5010647;28;20226;-65
2023/10/10 01:28:13;;;;;;;5.22;3.35;;;15.70;99.90;;;;;;5013283;28;20183;-66
2023/10/10 01:30:58;;;;;;;5.88;3.53;;;15.70;99.90;;;;;;5015113;28;20174;-65
2023/10/10 01:33:47;;;;;;;5.03;2.90;;;15.70;99.90;;;;;;5025109;28;20221;-64
2023/10/10 01:36:19;;;;;;;4.22;2.70;;;15.70;99.90;;;;;;5010688;28;20215;-66
2023/10/10 01:38:59;;;;;;;4.38;3.17;;;15.70;99.90;;;;;;5005460;28;20187;-65
2023/10/10 01:41:39;;;;;;;4.60;3.20;;;15.60;99.90;;;;;;5021834;28;20178;-66
2023/10/10 01:44:23;;;;;;;5.93;3.45;;;15.60;99.90;;;;;;5012422;28;20206;-65
2023/10/10 01:46:53;;;;;;;5.82;2.97;;;15.60;99.90;;;;;;5010075;28;20265;-66
2023/10/10 01:49:22;;;;;;;4.60;3.00;;;15.60;99.90;;;;;;5013693;28;20198;-66
2023/10/10 01:51:55;;;;;;;4.22;3.10;;;15.60;99.90;;;;;;5006787;28;20180;-66
2023/10/10 01:54:34;;;;;;;5.50;3.58;;;15.70;99.90;;;;;;5006033;28;20175;-66
2023/10/10 01:56:59;;;;;;;4.60;3.00;;;15.60;99.90;;;;;;5013562;28;20189;-64
2023/10/10 01:59:35;;;;;;;7.10;3.28;;;15.60;99.90;;;;;;5006036;28;20174;-65
2023/10/10 02:02:10;;;;;;;4.80;2.97;;;15.60;99.90;;;;;;5015168;28;20213;-65
2023/10/10 02:04:39;;;;;;;5.18;3.08;;;15.60;99.90;;;;;;5017700;28;20190;-65
2023/10/10 02:07:17;;;;;;;5.75;3.10;;;15.60;99.90;;;;;;5015661;28;20302;-65
2023/10/10 02:09:43;;;;;;;6.65;2.88;;;15.60;99.90;;;;;;5018333;28;20187;-65
2023/10/10 02:12:15;;;;;;;4.60;3.10;;;15.60;99.90;;;;;;5017663;28;20175;-65
2023/10/10 02:14:43;;;;;;;5.53;2.83;;;15.60;99.90;;;;;;5015721;28;20317;-65
2023/10/10 02:17:21;;;;;;;5.05;2.97;;;15.60;99.90;;;;;;5011902;28;20202;-65
2023/10/10 02:19:54;;;;;;;5.28;3.47;;;15.60;99.90;;;;;;5018394;28;20186;-66
2023/10/10 02:22:23;;;;;;;5.45;3.50;;;15.50;99.90;;;;;;4999106;28;20171;-66
2023/10/10 02:28:00;;;;;;;4.18;2.83;;;15.50;99.90;;;;;;4996795;28;20199;-66
2023/10/10 02:30:35;;;;;;;4.47;3.15;;;15.50;99.90;;;;;;5014363;28;20190;-65
2023/10/10 02:36:01;;;;;;;6.78;3.20;;;15.50;99.90;;;;;;5009800;28;20172;-66
2023/10/10 02:38:39;;;;;;;6.57;3.22;;;15.50;99.90;;;;;;4999404;28;20218;-65
2023/10/10 02:46:38;;;;;;;5.10;3.20;;;15.40;99.90;;;;;;5017647;28;20198;-66
2023/10/10 02:49:13;;;;;;;5.38;2.90;;;15.40;99.90;;;;;;5016091;28;20265;-65
2023/10/10 02:51:54;;;;;;;6.13;3.47;;;15.40;99.90;;;;;;5012041;28;20174;-65
2023/10/10 02:54:35;;;;;;;4.30;3.17;;;15.40;99.90;;;;;;5022925;28;20226;-65
2023/10/10 02:59:50;;;;;;;4.28;3.30;;;15.40;99.90;;;;;;5007993;28;20298;-65
2023/10/10 03:02:19;;;;;;;4.75;3.30;;;15.40;99.90;;;;;;5017811;28;20254;-66
2023/10/10 03:05:06;;;;;;;5.50;2.90;;;15.40;99.90;;;;;;5015821;28;20228;-66
2023/10/10 03:07:32;;;;;;;4.35;3.03;;;15.30;99.90;;;;;;5009309;28;20286;-67
2023/10/10 03:12:52;;;;;;;5.53;3.47;;;15.30;99.90;;;;;;5018141;28;20209;-66
2023/10/10 03:21:06;;;;;;;5.00;3.35;;;15.30;99.90;;;;;;5018343;28;20220;-65
2023/10/10 03:25:54;;;;;;;4.70;3.38;;;15.30;99.90;;;;;;5016322;28;20199;-66
2023/10/10 03:28:30;;;;;;;5.88;3.60;;;15.30;99.90;;;;;;5017323;28;20233;-66
2023/10/10 05:23:47;;;;;;;5.65;3.33;;;15.10;99.90;;;;;;5003631;28;20215;-69
2023/10/10 05:26:15;;;;;;;4.47;2.90;;;15.10;99.90;;;;;;5015091;28;20197;-69
2023/10/10 05:28:45;;;;;;;4.78;3.35;;;15.00;99.90;;;;;;5021843;28;20193;-68
2023/10/10 05:31:18;;;;;;;5.22;3.42;;;15.10;99.90;;;;;;5002415;28;20190;-68
2023/10/10 05:33:47;;;;;;;4.78;3.08;;;15.00;99.90;;;;;;5009912;28;20179;-65
2023/10/10 05:36:13;;;;;;;5.07;3.28;;;15.00;99.90;;;;;;5011822;28;20215;-65
2023/10/10 05:38:39;;;;;;;5.53;3.50;;;15.10;99.90;;;;;;5014065;28;20206;-65
2023/10/10 05:41:12;;;;;;;5.93;3.78;;;15.10;99.90;;;;;;5014812;28;20203;-65
2023/10/10 05:43:39;;;;;;;5.65;3.95;;;15.00;99.90;;;;;;5014753;28;20237;-66
2023/10/10 05:46:08;;;;;;;7.35;4.00;;;15.00;99.90;;;;;;5014340;28;20167;-65
2023/10/10 05:48:37;;;;;;;5.05;3.63;;;15.00;99.90;;;;;;5010722;28;20203;-65
2023/10/10 05:51:08;;;;;;;4.90;3.42;;;15.00;99.90;;;;;;5022994;28;20193;-65
2023/10/10 05:53:34;;;;;;;6.95;3.17;;;15.00;99.90;;;;;;5014725;28;20182;-65
2023/10/10 05:56:12;;;;;;;5.78;3.42;;;15.00;99.90;;;;;;5014512;28;20185;-65
2023/10/10 05:58:39;;;;;;;6.18;3.60;;;15.00;99.90;;;;;;5014227;28;20251;-65
2023/10/10 06:01:08;;;;;;;5.32;3.25;;;14.90;99.90;;;;;;4998829;28;20191;-66
2023/10/10 06:03:34;;;;;;;5.15;3.45;;;14.90;99.90;;;;;;5008599;28;20194;-65
2023/10/10 06:06:03;;;;;;;6.43;3.22;;;14.90;99.90;;;;;;5014432;28;20182;-65
2023/10/10 06:08:31;;;;;;;5.90;3.70;;;15.00;99.90;;;;;;5014331;28;20250;-65
2023/10/10 06:10:57;;;;;;;5.68;3.50;;;15.00;99.90;;;;;;5014807;28;20187;-65
2023/10/10 06:13:23;;;;;;;5.20;3.42;;;15.00;99.90;;;;;;5014599;28;20174;-66
2023/10/10 06:15:55;;;;;;;4.85;3.35;;;15.00;99.90;;;;;;5014350;28;20253;-66
2023/10/10 06:18:20;;;;;;;5.07;2.90;;;15.00;99.90;;;;;;5022066;28;20288;-65
2023/10/10 06:20:47;;;;;;;4.30;3.10;;;15.00;99.90;;;;;;5014412;28;20273;-65
2023/10/10 06:23:18;;;;;;;4.45;3.15;;;15.10;99.90;;;;;;5013901;28;20209;-65
2023/10/10 06:25:43;;;;;;;4.60;3.08;;;15.10;99.90;;;;;;5014373;28;20209;-65
2023/10/10 06:28:22;;;;;;;5.22;3.72;;;15.10;99.90;;;;;;5013681;28;20175;-65
2023/10/10 06:30:53;;;;;;;5.28;3.15;;;15.20;99.90;;;;;;5014470;28;20178;-65
2023/10/10 06:33:33;;;;;;;6.15;3.55;;;15.20;99.90;;;;;;5014404;28;20182;-66
2023/10/10 06:36:32;;;;;;;4.38;3.17;;;15.20;99.90;;;;;;5014518;28;20194;-65
2023/10/10 06:41:40;;;;;;;5.88;3.53;;;15.30;99.90;;;;;;4995435;28;20154;-65
2023/10/10 06:44:13;;;;;;;6.75;3.40;;;15.30;99.90;;;;;;5005428;28;20206;-65
2023/10/10 06:46:40;;;;;;;7.55;3.80;;;15.40;99.90;;;;;;5002770;28;20194;-66
2023/10/10 06:49:11;;;;;;;6.85;4.18;;;15.40;99.90;;;;;;5015970;28;20182;-65
2023/10/10 06:51:40;;;;;;;7.65;3.90;;;15.50;99.90;;;;;;5017301;28;20230;-66
2023/10/10 06:54:19;;;;;;;5.57;3.95;;;15.50;99.90;;;;;;5017626;28;20179;-65
2023/10/10 06:57:04;;;;;;;6.55;3.33;;;15.50;99.90;;;;;;5013724;28;20202;-66
2023/10/10 06:59:30;;;;;;;5.63;3.80;;;15.60;99.90;;;;;;4997954;28;20180;-66
2023/10/10 07:01:59;;;;;;;7.00;4.32;;;15.60;99.90;;;;;;5012042;28;20206;-65
2023/10/10 07:04:28;;;;;;;5.43;3.90;;;15.70;99.90;;;;;;5017392;28;20206;-66
2023/10/10 07:07:00;;;;;;;7.22;4.30;;;15.70;99.90;;;;;;5017215;28;20185;-65
2023/10/10 07:09:29;;;;;;;7.13;4.40;;;15.80;99.90;;;;;;5013765;28;20242;-65
2023/10/10 07:11:56;;;;;;;6.55;4.20;;;15.80;99.90;;;;;;5010068;28;20189;-65
2023/10/10 07:14:25;;;;;;;6.88;3.95;;;15.90;99.90;;;;;;5016919;28;20190;-66
2023/10/10 07:16:56;;;;;;;6.00;4.03;;;15.90;99.90;;;;;;5017044;28;20206;-66
2023/10/10 07:19:30;;;;;;;5.55;3.60;;;16.00;99.90;;;;;;5017016;28;20186;-67
2023/10/10 07:21:57;;;;;;;9.10;4.03;;;16.00;99.90;;;;;;5017183;28;20257;-65
2023/10/10 07:24:28;;;;;;;6.70;3.70;;;16.10;99.90;;;;;;5016287;28;20305;-67
2023/10/10 07:27:05;;;;;;;5.45;3.72;;;16.10;99.90;;;;;;5017209;28;20220;-66
2023/10/10 07:29:57;;;;;;;5.22;3.42;;;16.20;99.90;;;;;;5013759;28;20171;-66
2023/10/10 07:32:17;;;;;;;5.50;4.00;;;16.20;99.90;;;;;;5004151;28;20182;-66
2023/10/10 07:34:51;;;;;;;6.07;3.95;;;16.30;99.90;;;;;;5016914;28;20190;-66
2023/10/10 07:37:22;;;;;;;5.43;3.50;;;16.40;99.90;;;;;;5016451;28;20213;-65
2023/10/10 07:43:03;;;;;;;5.32;3.53;;;16.50;99.90;;;;;;4976567;28;20184;-65
2023/10/10 07:45:33;;;;;;;5.38;3.35;;;16.60;99.90;;;;;;4965391;28;20270;-66
2023/10/10 07:50:34;;;;;;;5.85;3.47;;;16.70;99.90;;;;;;5028170;28;20182;-65
2023/10/10 07:53:04;;;;;;;5.10;3.58;;;16.80;99.90;;;;;;5017686;28;20214;-77
2023/10/10 07:55:50;;;;;;;6.00;3.80;;;16.80;99.90;;;;;;5012978;28;20175;-76
2023/10/10 07:58:20;;;;;;;6.28;4.15;;;16.90;99.90;;;;;;5025006;28;20194;-77
2023/10/10 08:00:45;;;;;;;6.07;4.00;;;17.00;99.90;;;;;;5016454;28;20167;-75
2023/10/10 08:03:20;;;;;;;6.65;3.78;;;17.00;99.90;;;;;;5016205;28;20193;-77
2023/10/10 08:05:53;;;;;;;6.82;3.97;;;17.10;99.90;;;;;;5020083;28;20208;-74
2023/10/10 08:08:19;;;;;;;5.47;3.65;;;17.10;99.90;;;;;;5013097;28;20191;-76
2023/10/10 08:10:49;;;;;;;8.25;3.55;;;17.20;99.90;;;;;;4996854;28;20179;-77
2023/10/10 08:13:20;;;;;;;6.03;3.38;;;17.20;99.90;;;;;;4998458;28;20196;-77
2023/10/10 08:15:56;;;;;;;6.05;3.45;;;17.30;99.90;;;;;;5016495;28;20349;-77
2023/10/10 08:21:22;;;;;;;9.70;4.40;;;17.50;99.90;;;;;;4997588;28;20397;-77
2023/10/10 08:23:50;;;;;;;5.47;3.67;;;17.60;99.90;;;;;;4996941;28;20199;-76
2023/10/10 08:26:19;;;;;;;5.78;3.67;;;17.60;99.90;;;;;;5007573;28;20209;-76
2023/10/10 08:28:46;;;;;;;5.90;3.70;;;17.70;99.90;;;;;;5016285;28;20189;-76
2023/10/10 08:31:13;;;;;;;5.45;3.67;;;17.80;99.90;;;;;;5016199;28;20166;-76
2023/10/10 08:33:49;;;;;;;5.22;3.70;;;17.90;99.90;;;;;;5016582;28;20178;-75
2023/10/10 08:36:24;;;;;;;6.20;3.30;;;18.00;99.90;;;;;;5016394;28;20174;-76
2023/10/10 08:38:58;;;;;;;6.40;3.33;;;18.10;99.90;;;;;;4996150;28;20190;-75
2023/10/10 08:41:31;;;;;;;5.63;3.60;;;18.20;99.90;;;;;;5009454;28;20179;-77
2023/10/10 08:44:06;;;;;;;5.60;3.35;;;18.30;99.90;;;;;;5008017;28;20198;-76
2023/10/10 08:46:40;;;;;;;5.63;3.60;;;18.30;99.90;;;;;;4998084;28;20202;-76
2023/10/10 08:49:09;;;;;;;5.78;3.47;;;18.50;99.90;;;;;;5010314;28;20170;-77
2023/10/10 08:51:39;;;;;;;5.40;3.78;;;18.50;99.90;;;;;;5015290;28;20193;-76
2023/10/10 08:54:12;;;;;;;4.82;3.50;;;18.70;99.90;;;;;;5015195;28;20213;-76
2023/10/10 08:56:42;;;;;;;5.63;3.40;;;18.80;99.90;;;;;;5015764;28;20167;-76
2023/10/10 08:59:11;;;;;;;5.43;3.28;;;18.90;99.90;;;;;;5011997;28;20187;-77
2023/10/10 09:01:38;;;;;;;5.88;3.45;;;19.10;99.90;;;;;;4996146;28;20179;-72
2023/10/10 09:04:04;;;;;;;5.57;3.65;;;19.20;99.90;;;;;;5012482;28;20227;-77
2023/10/10 09:09:34;;;;;;;5.07;3.50;;;19.50;99.90;;;;;;5021580;28;20179;-76
2023/10/10 09:12:04;;;;;;;6.10;4.40;;;19.70;99.90;;;;;;5029450;28;20292;-72
2023/10/10 09:14:49;;;;;;;5.88;3.88;;;19.90;99.90;;;;;;5022853;28;20199;-77
2023/10/10 09:17:34;;;;;;;5.18;3.63;;;20.20;99.90;;;;;;5015989;28;20365;-77
2023/10/10 09:20:17;;;;;;;6.25;3.92;;;20.70;99.90;;;;;;5011624;28;20187;-77
2023/10/10 09:22:44;;;;;;;6.97;4.18;;;21.30;99.90;;;;;;5011762;28;20179;-74
2023/10/10 09:25:31;;;;;;;6.32;3.67;;;21.80;99.90;;;;;;5014788;28;20233;-77
2023/10/10 09:28:03;;;;;;;6.07;3.35;;;22.20;99.90;;;;;;4995433;28;20207;-77
2023/10/10 09:30:40;;;;;;;6.57;3.50;;;22.60;99.90;;;;;;5004024;28;20447;-77
2023/10/10 09:35:58;;;;;;;4.68;3.38;;;23.20;99.90;;;;;;5015784;28;20268;-77
2023/10/10 09:38:28;;;;;;;5.72;3.55;;;23.50;99.90;;;;;;5013955;28;20269;-75
2023/10/10 09:41:10;;;;;;;6.10;3.65;;;23.60;99.90;;;;;;5014914;28;20202;-77
2023/10/10 09:44:01;;;;;;;5.05;3.67;;;23.60;99.90;;;;;;5010792;28;20256;-72
2023/10/10 09:46:59;;;;;;;5.80;3.80;;;23.60;99.90;;;;;;5014251;28;20193;-78
2023/10/10 09:57:58;;;;;;;5.13;3.25;;;23.60;99.90;;;;;;4995966;28;20155;-78
2023/10/10 10:00:35;;;;;;;5.95;3.78;;;23.70;99.90;;;;;;5005353;28;20208;-77
2023/10/10 10:03:31;;;;;;;4.80;3.25;;;23.80;99.90;;;;;;5019180;28;20293;-77
2023/10/10 10:09:17;;;;;;;4.63;3.00;;;23.80;99.90;;;;;;5012288;28;20203;-77
2023/10/10 10:12:30;;;;;;;5.43;3.30;;;23.80;99.90;;;;;;5016321;28;20193;-76
2023/10/10 10:15:16;;;;;;;5.78;3.97;;;23.80;99.90;;;;;;5011778;28;20275;-74
2023/10/10 10:18:12;;;;;;;5.25;3.83;;;23.90;99.90;;;;;;5016675;28;20183;-77
2023/10/10 10:20:49;;;;;;;4.38;3.50;;;23.90;99.90;;;;;;5014465;28;20191;-75
2023/10/10 10:23:33;;;;;;;5.43;3.25;;;24.00;99.90;;;;;;5014252;28;20213;-77
2023/10/10 10:26:04;;;;;;;5.75;3.50;;;24.00;99.90;;;;;;5017902;28;20181;-77
2023/10/10 10:28:35;;;;;;;5.47;3.45;;;24.10;99.90;;;;;;5017189;28;20159;-78
2023/10/10 10:31:16;;;;;;;7.32;3.33;;;24.20;99.90;;;;;;4998749;28;20152;-77
2023/10/10 10:34:05;;;;;;;5.93;3.83;;;24.30;99.90;;;;;;4999022;28;20186;-76
2023/10/10 10:36:55;;;;;;;5.50;3.33;;;24.40;99.90;;;;;;5011025;28;20208;-78
2023/10/10 10:39:35;;;;;;;6.43;3.72;;;24.50;99.90;;;;;;5027486;28;20201;-76
2023/10/10 10:42:11;;;;;;;4.35;3.58;;;24.60;99.90;;;;;;5026315;28;20213;-78
2023/10/10 10:44:54;;;;;;;5.28;3.03;;;24.70;99.90;;;;;;5034058;28;20202;-77
2023/10/10 10:47:37;;;;;;;5.10;3.40;;;24.70;99.90;;;;;;5025822;28;20166;-79
2023/10/10 10:50:04;;;;;;;5.07;3.15;;;24.90;99.90;;;;;;5037316;28;20198;-76
2023/10/10 10:52:44;;;;;;;3.95;3.10;;;25.00;99.90;;;;;;5020486;28;20199;-78
2023/10/10 10:55:22;;;;;;;7.35;3.28;;;25.10;99.90;;;;;;5000976;28;20174;-78
2023/10/10 10:58:06;;;;;;;6.25;3.55;;;25.20;99.90;;;;;;5017450;28;20178;-78
2023/10/10 11:03:35;;;;;;;6.60;3.58;;;25.40;99.90;;;;;;5017506;28;20208;-77
2023/10/10 11:06:09;;;;;;;5.63;3.70;;;25.50;99.90;;;;;;5027548;28;20159;-78
2023/10/10 11:11:36;;;;;;;5.65;3.72;;;25.70;99.90;;;;;;5007418;28;20378;-78
2023/10/10 11:16:45;;;;;;;5.35;3.40;;;25.80;99.90;;;;;;5017447;28;20220;-77
2023/10/10 11:21:53;;;;;;;4.38;3.42;;;26.10;99.90;;;;;;5023553;28;20178;-77
2023/10/10 11:24:24;;;;;;;6.18;3.63;;;26.20;99.90;;;;;;5018026;28;20221;-78
2023/10/10 11:30:08;;;;;;;4.47;2.95;;;26.40;99.90;;;;;;5022297;28;20170;-78
2023/10/10 11:32:47;;;;;;;5.50;3.08;;;26.70;99.90;;;;;;5028835;28;20178;-78
2023/10/10 11:35:22;;;;;;;6.38;3.47;;;26.80;99.90;;;;;;5023878;28;20229;-78
2023/10/10 11:38:08;;;;;;;4.72;3.05;;;27.00;99.90;;;;;;5019807;28;20209;-78
2023/10/10 11:40:37;;;;;;;4.70;3.00;;;27.20;99.90;;;;;;5024542;28;20192;-78
2023/10/10 11:43:05;;;;;;;3.15;2.53;;;27.40;99.90;;;;;;5036874;28;20185;-79
2023/10/10 11:45:39;;;;;;;6.22;3.15;;;27.50;99.90;;;;;;5014436;28;20207;-78
2023/10/10 11:48:12;;;;;;;4.70;3.15;;;27.70;99.90;;;;;;5011628;28;20195;-79
2023/10/10 11:50:56;;;;;;;5.30;3.22;;;27.80;99.90;;;;;;5016733;28;20248;-75
2023/10/10 11:53:29;;;;;;;7.25;3.15;;;27.90;99.90;;;;;;5016990;28;20210;-79
2023/10/10 11:56:01;;;;;;;3.90;3.15;;;28.00;99.90;;;;;;5033390;28;20174;-77
2023/10/10 11:58:35;;;;;;;5.05;2.90;;;28.10;99.90;;;;;;5032745;28;20190;-79
2023/10/10 12:01:08;;;;;;;4.40;3.00;;;28.10;99.90;;;;;;5032240;28;20184;-77
2023/10/10 12:06:17;;;;;;;5.18;3.00;;;28.40;99.90;;;;;;5035161;28;20189;-78
2023/10/10 12:08:50;;;;;;;5.55;3.40;;;28.50;99.90;;;;;;5000524;28;20182;-79
2023/10/10 12:11:20;;;;;;;5.50;3.22;;;28.60;99.90;;;;;;5026997;28;20205;-78
2023/10/10 12:13:52;;;;;;;9.77;3.55;;;28.70;99.90;;;;;;5016425;28;20186;-78
2023/10/10 12:16:23;;;;;;;5.72;2.83;;;28.70;99.90;;;;;;5022367;28;20224;-79
2023/10/10 12:18:52;;;;;;;5.68;3.40;;;28.70;99.90;;;;;;5025144;28;20209;-77
2023/10/10 12:21:20;;;;;;;6.95;3.53;;;28.70;99.90;;;;;;5020654;28;20179;-78
2023/10/10 12:23:47;;;;;;;6.35;3.83;;;28.70;99.90;;;;;;5016340;28;20210;-80
2023/10/10 12:26:15;;;;;;;4.25;2.80;;;28.70;99.90;;;;;;5019001;28;20209;-79
2023/10/10 12:28:43;;;;;;;5.70;3.30;;;28.80;99.90;;;;;;5026806;28;20174;-79
2023/10/10 12:31:15;;;;;;;6.57;3.15;;;28.80;99.90;;;;;;5018052;28;20195;-79
2023/10/10 12:33:49;;;;;;;4.47;3.28;;;28.80;99.90;;;;;;5036223;28;20182;-80
2023/10/10 12:36:28;;;;;;;3.80;2.83;;;28.90;99.90;;;;;;5032144;28;20225;-80
2023/10/10 12:38:55;;;;;;;3.90;2.72;;;29.00;99.90;;;;;;5016517;28;20197;-79
2023/10/10 12:41:21;;;;;;;4.30;2.95;;;29.00;99.90;;;;;;5016769;28;20316;-78
2023/10/10 12:43:49;;;;;;;4.50;2.88;;;29.10;99.90;;;;;;5016828;28;20261;-76
2023/10/10 12:46:20;;;;;;;5.00;2.90;;;29.20;99.90;;;;;;5016129;28;20189;-78
2023/10/10 12:48:49;;;;;;;4.95;3.10;;;29.40;99.90;;;;;;4995802;28;20221;-78
2023/10/10 12:51:22;;;;;;;5.80;2.92;;;29.50;99.90;;;;;;5027352;28;20237;-77
2023/10/10 12:53:59;;;;;;;3.65;2.65;;;29.70;99.90;;;;;;5016975;28;20248;-77
2023/10/10 12:56:25;;;;;;;4.70;3.33;;;29.80;99.90;;;;;;5015793;28;20181;-79
2023/10/10 12:58:51;;;;;;;7.80;2.95;;;29.80;99.90;;;;;;5016887;28;20189;-78
2023/10/10 13:01:23;;;;;;;3.80;3.00;;;29.90;99.90;;;;;;5015560;28;20516;-78
2023/10/10 13:03:54;;;;;;;4.60;2.83;;;29.90;99.90;;;;;;5016008;28;20205;-78
2023/10/10 13:06:22;;;;;;;4.60;3.33;;;30.00;99.90;;;;;;5012229;28;20205;-79
2023/10/10 13:08:49;;;;;;;4.40;2.70;;;30.10;99.90;;;;;;4995691;28;20189;-79
2023/10/10 13:11:19;;;;;;;4.25;2.97;;;30.20;99.90;;;;;;4997215;28;20175;-80
2023/10/10 13:13:56;;;;;;;7.55;3.00;;;30.20;99.90;;;;;;5012674;28;20217;-80
2023/10/10 13:16:52;;;;;;;6.60;2.83;;;30.20;99.90;;;;;;5003823;28;20166;-78
2023/10/10 13:19:20;;;;;;;5.80;3.05;;;30.20;99.90;;;;;;5016003;28;20294;-79
2023/10/10 13:21:52;;;;;;;5.05;3.42;;;30.20;99.90;;;;;;5012231;28;20195;-78
2023/10/10 13:24:20;;;;;;;5.57;3.58;;;30.20;99.90;;;;;;5015271;28;20216;-78
2023/10/10 13:26:49;;;;;;;7.22;4.05;;;30.10;99.90;;;;;;5015976;28;20185;-75
2023/10/10 13:29:17;;;;;;;4.60;3.20;;;30.10;99.90;;;;;;5015200;28;20185;-80
2023/10/10 13:31:46;;;;;;;4.43;3.30;;;30.00;99.90;;;;;;5016031;28;20209;-78
2023/10/10 13:34:13;;;;;;;6.65;3.55;;;30.10;99.90;;;;;;5002562;28;20174;-79
2023/10/10 13:36:41;;;;;;;4.72;3.05;;;30.10;99.90;;;;;;4995783;28;20198;-79
2023/10/10 13:39:15;;;;;;;6.53;3.42;;;30.10;99.90;;;;;;4995788;28;20190;-79
2023/10/10 13:41:41;;;;;;;7.28;3.28;;;30.10;99.90;;;;;;5015179;28;20260;-80
2023/10/10 13:44:07;;;;;;;7.65;3.55;;;30.20;99.90;;;;;;5015477;28;20321;-79
2023/10/10 13:46:34;;;;;;;6.82;3.30;;;30.20;99.90;;;;;;5015589;28;20174;-77
2023/10/10 13:49:03;;;;;;;5.80;3.45;;;30.20;99.90;;;;;;5015709;28;20173;-79
2023/10/10 13:51:29;;;;;;;6.18;3.22;;;30.30;99.90;;;;;;5015745;28;20209;-78
2023/10/10 13:53:58;;;;;;;5.88;3.30;;;30.30;99.90;;;;;;5015310;28;20226;-78
2023/10/10 13:56:23;;;;;;;7.75;3.88;;;30.30;99.90;;;;;;5015588;28;20179;-78
2023/10/10 13:58:52;;;;;;;5.05;3.47;;;30.30;99.90;;;;;;5016761;28;20197;-79
2023/10/10 14:01:29;;;;;;;5.57;3.50;;;30.30;99.90;;;;;;5019156;28;20185;-79
2023/10/10 14:06:45;;;;;;;4.90;3.28;;;30.20;99.90;;;;;;5020389;28;20185;-80
2023/10/10 14:09:21;;;;;;;5.32;3.22;;;30.20;99.90;;;;;;5015325;28;20174;-79
2023/10/10 14:11:50;;;;;;;4.60;3.10;;;30.20;99.90;;;;;;4999455;28;20266;-79
2023/10/10 14:14:16;;;;;;;4.38;2.92;;;30.20;99.90;;;;;;4999757;28;20186;-78
2023/10/10 14:16:44;;;;;;;5.07;3.33;;;30.30;99.90;;;;;;5014784;28;20198;-79
2023/10/10 14:19:12;;;;;;;3.95;3.15;;;30.30;99.90;;;;;;5018494;28;20170;-78
2023/10/10 14:21:40;;;;;;;5.72;3.38;;;30.30;99.90;;;;;;5019046;28;20178;-80
2023/10/10 14:24:12;;;;;;;6.57;2.97;;;30.30;99.90;;;;;;5018425;28;20202;-79
2023/10/10 14:26:43;;;;;;;5.95;2.90;;;30.30;99.90;;;;;;5019029;28;20173;-79
2023/10/10 14:29:12;;;;;;;4.60;3.30;;;30.30;99.90;;;;;;5018868;28;20222;-80
2023/10/10 14:31:42;;;;;;;4.82;3.08;;;30.30;99.90;;;;;;5028915;28;20184;-80
2023/10/10 14:34:15;;;;;;;4.68;2.95;;;30.30;99.90;;;;;;5038689;28;20197;-79
2023/10/10 14:36:43;;;;;;;6.50;3.42;;;30.20;99.90;;;;;;5038498;28;20176;-78
2023/10/10 14:39:09;;;;;;;7.63;2.85;;;30.20;99.90;;;;;;5016603;28;20238;-79
2023/10/10 14:41:39;;;;;;;5.90;3.53;;;30.20;99.90;;;;;;5005191;28;20189;-79
2023/10/10 14:44:12;;;;;;;5.10;3.53;;;30.10;99.50;;;;;;5018674;28;20225;-79
2023/10/10 14:46:40;;;;;;;5.10;3.40;;;30.10;99.70;;;;;;5018322;28;20175;-77
2023/10/10 14:49:16;;;;;;;4.57;3.28;;;30.10;99.30;;;;;;5017536;28;20312;-78
2023/10/10 14:51:48;;;;;;;4.68;2.92;;;30.00;99.60;;;;;;5018187;28;20216;-78
2023/10/10 14:54:17;;;;;;;4.15;2.85;;;29.90;99.30;;;;;;5018152;28;20219;-79
2023/10/10 14:56:47;;;;;;;4.10;2.75;;;29.90;99.40;;;;;;5018267;28;20201;-78
2023/10/10 14:59:17;;;;;;;4.70;3.03;;;29.80;99.40;;;;;;5018863;28;20166;-79
2023/10/10 15:01:50;;;;;;;7.78;3.38;;;29.70;99.10;;;;;;5018303;28;20289;-78
2023/10/10 15:04:17;;;;;;;4.65;2.90;;;29.70;98.60;;;;;;5018190;28;20229;-77
2023/10/10 15:06:44;;;;;;;5.13;3.25;;;29.60;98.90;;;;;;5024902;28;20179;-79
2023/10/10 15:09:19;;;;;;;5.78;2.92;;;29.50;98.50;;;;;;5025161;28;20240;-78
2023/10/10 15:11:48;;;;;;;3.90;2.88;;;29.40;98.50;;;;;;5017171;28;20181;-79
2023/10/10 15:14:14;;;;;;;3.90;2.95;;;29.30;98.30;;;;;;5017542;28;20198;-78
2023/10/10 15:16:41;;;;;;;4.22;2.80;;;29.10;98.30;;;;;;5018426;28;20179;-79
2023/10/10 15:19:08;;;;;;;3.80;2.75;;;28.90;98.10;;;;;;5017223;28;20170;-79
2023/10/10 15:21:35;;;;;;;6.50;3.28;;;28.80;98.10;;;;;;5018343;28;20182;-77
2023/10/10 15:24:11;;;;;;;4.60;3.03;;;28.70;98.20;;;;;;5017412;28;20191;-78
2023/10/10 15:26:40;;;;;;;5.40;3.20;;;28.60;98.30;;;;;;5027102;28;20199;-78
2023/10/10 15:29:10;;;;;;;3.70;2.55;;;28.40;98.50;;;;;;5027050;28;20194;-79
2023/10/10 15:31:36;;;;;;;5.15;2.90;;;28.30;98.60;;;;;;5010237;28;20196;-79
2023/10/10 15:34:01;;;;;;;4.80;3.20;;;28.20;98.70;;;;;;5004517;28;20251;-78
2023/10/10 15:36:30;;;;;;;4.47;2.90;;;28.10;98.80;;;;;;5013241;28;20192;-78
2023/10/10 15:39:03;;;;;;;4.90;2.83;;;28.00;98.80;;;;;;5036058;28;20197;-77
2023/10/10 15:41:31;;;;;;;3.85;2.92;;;27.90;98.80;;;;;;5017316;28;20171;-78
2023/10/10 15:44:02;;;;;;;6.03;2.85;;;27.80;98.80;;;;;;5018427;28;20206;-78
2023/10/10 15:46:32;;;;;;;3.90;2.90;;;27.70;98.90;;;;;;5018002;28;20217;-77
2023/10/10 15:48:59;;;;;;;6.30;3.05;;;27.60;98.90;;;;;;5017520;28;20171;-77
2023/10/10 15:51:26;;;;;;;5.80;3.15;;;27.60;98.90;;;;;;5031932;28;20190;-77
2023/10/10 15:53:54;;;;;;;4.60;3.00;;;27.60;99.10;;;;;;5017054;28;20193;-76
2023/10/10 15:56:29;;;;;;;4.75;2.80;;;27.50;99.20;;;;;;5017126;28;20225;-78
2023/10/10 15:58:58;;;;;;;7.65;3.20;;;27.40;99.10;;;;;;5016960;28;20174;-78
2023/10/10 16:01:29;;;;;;;4.78;3.30;;;27.40;99.20;;;;;;5016605;28;20206;-77
2023/10/10 16:04:14;;;;;;;4.78;3.55;;;27.30;99.40;;;;;;5017118;28;20268;-75
2023/10/10 16:06:50;;;;;;;5.65;3.35;;;27.20;99.60;;;;;;5018131;28;20209;-77
2023/10/10 16:09:20;;;;;;;7.80;4.10;;;27.10;99.80;;;;;;5036809;28;20208;-78
2023/10/10 16:11:52;;;;;;;6.47;4.57;;;27.00;99.90;;;;;;5016730;28;20199;-78
2023/10/10 16:14:21;;;;;;;6.90;4.30;;;26.90;99.90;;;;;;5016642;28;20178;-78
2023/10/10 16:16:54;;;;;;;11.70;8.50;;;26.80;99.90;;;;;;4997639;28;20172;-78
2023/10/10 16:19:22;;;;;;;11.32;7.30;;;26.70;99.90;;;;;;5009482;28;20364;-78
2023/10/10 16:21:50;;;;;;;15.48;12.60;;;26.60;99.90;;;;;;5016236;28;20270;-77